Wye River — WDE3583 — position and weather

sailwx.info

Track history (hours):
 
Tides and Currents Weather Stations Pressure Air Temp Water Temp Dewpoint Dewpoint Depression Visibility Wind Speed Wind Dir Waves Ship Positions

Wye River

Owner: Vane Line Bunkering, Inc., Baltimore, MD. More information available from US FCC via Universal Licensing System and Coast Guard Vessel Documentation Center.

Last reported at 2014-Oct-19 18:14 UTC. Time now 2014-Oct-20 09:47 UTC.
Position N 27°36' W 083°02'.

Length 30 m; draft 4.3 m.

Type: Towing. MMSI: 367341190.

Date/timePositionNaut miles runAvg speedWind from/ knotsBaromVisibWave heightAir tempDewpointWater temp
2014-Oct-19 18:14N 27°36' W 083°02'710.2
2014-Oct-19 17:32N 27°36' W 082°54'10 9.9
2014-Oct-19 16:34N 27°36' W 082°43'6 6.0
2014-Oct-19 15:34N 27°39' W 082°37'8 8.4
2014-Oct-19 14:34N 27°46' W 082°31'9 8.6
2014-Oct-19 13:33N 27°54' W 082°26'1 1.3
2014-Oct-19 12:33N 27°55' W 082°27'1 1.1
2014-Oct-19 11:33N 27°56' W 082°26'0 0.0
2014-Oct-19 10:33N 27°56' W 082°26'0 0.0
2014-Oct-19 09:34N 27°56' W 082°26'0 0.0
2014-Oct-19 08:34N 27°56' W 082°26'0 0.0
2014-Oct-19 07:33N 27°56' W 082°26'0 0.0
2014-Oct-19 06:34N 27°56' W 082°26'0 0.0
2014-Oct-19 05:34N 27°56' W 082°26'0 0.0
2014-Oct-19 04:33N 27°56' W 082°26'0 0.0
2014-Oct-19 03:34N 27°56' W 082°26'0 0.0
2014-Oct-19 02:33N 27°56' W 082°26'0 0.0
2014-Oct-19 01:33N 27°56' W 082°26'0 0.0
2014-Oct-19 00:34N 27°56' W 082°26'0 0.0
2014-Oct-18 23:33N 27°56' W 082°26'0 0.0
2014-Oct-18 22:34N 27°56' W 082°26'0 0.0
2014-Oct-18 21:34N 27°56' W 082°26'0 0.0
2014-Oct-18 20:33N 27°56' W 082°26'0 0.0
2014-Oct-18 19:33N 27°56' W 082°26'0 0.0
2014-Oct-18 18:33N 27°56' W 082°26'1 0.6
2014-Oct-18 17:33N 27°55' W 082°26'1 1.4
2014-Oct-18 16:33N 27°54' W 082°26'7 7.0
2014-Oct-18 15:31N 27°47' W 082°30'10 8.6
2014-Oct-18 14:22N 27°39' W 082°36'8 9.0
2014-Oct-18 13:32N 27°36' W 082°44'3 2.9
2014-Oct-18 12:34N 27°37' W 082°47'6 5.7
2014-Oct-18 11:34N 27°36' W 082°54'  
Track history (hours):
 
Tides and Currents Weather Stations Pressure Air Temp Water Temp Dewpoint Dewpoint Depression Visibility Wind Speed Wind Dir Waves Ship Positions

Wye River

Owner: Vane Line Bunkering, Inc., Baltimore, MD. More information available from US FCC via Universal Licensing System and Coast Guard Vessel Documentation Center.

Last reported at 2014-Oct-19 18:14 UTC. Time now 2014-Oct-20 09:47 UTC.
Position N 27°36' W 083°02'.

Length 30 m; draft 4.3 m.

Type: Towing. MMSI: 367341190.

Date/timePositionNaut miles runAvg speedWind from/ knotsBaromVisibWave heightAir tempDewpointWater temp
2014-Oct-19 18:14N 27°36' W 083°02'710.2
2014-Oct-19 17:32N 27°36' W 082°54'10 9.9
2014-Oct-19 16:34N 27°36' W 082°43'6 6.0
2014-Oct-19 15:34N 27°39' W 082°37'8 8.4
2014-Oct-19 14:34N 27°46' W 082°31'9 8.6
2014-Oct-19 13:33N 27°54' W 082°26'1 1.3
2014-Oct-19 12:33N 27°55' W 082°27'1 1.1
2014-Oct-19 11:33N 27°56' W 082°26'0 0.0
2014-Oct-19 10:33N 27°56' W 082°26'0 0.0
2014-Oct-19 09:34N 27°56' W 082°26'0 0.0
2014-Oct-19 08:34N 27°56' W 082°26'0 0.0
2014-Oct-19 07:33N 27°56' W 082°26'0 0.0
2014-Oct-19 06:34N 27°56' W 082°26'0 0.0
2014-Oct-19 05:34N 27°56' W 082°26'0 0.0
2014-Oct-19 04:33N 27°56' W 082°26'0 0.0
2014-Oct-19 03:34N 27°56' W 082°26'0 0.0
2014-Oct-19 02:33N 27°56' W 082°26'0 0.0
2014-Oct-19 01:33N 27°56' W 082°26'0 0.0
2014-Oct-19 00:34N 27°56' W 082°26'0 0.0
2014-Oct-18 23:33N 27°56' W 082°26'0 0.0
2014-Oct-18 22:34N 27°56' W 082°26'0 0.0
2014-Oct-18 21:34N 27°56' W 082°26'0 0.0
2014-Oct-18 20:33N 27°56' W 082°26'0 0.0
2014-Oct-18 19:33N 27°56' W 082°26'0 0.0
2014-Oct-18 18:33N 27°56' W 082°26'1 0.6
2014-Oct-18 17:33N 27°55' W 082°26'1 1.4
2014-Oct-18 16:33N 27°54' W 082°26'7 7.0
2014-Oct-18 15:31N 27°47' W 082°30'10 8.6
2014-Oct-18 14:22N 27°39' W 082°36'8 9.0
2014-Oct-18 13:32N 27°36' W 082°44'3 2.9
2014-Oct-18 12:34N 27°37' W 082°47'6 5.7
2014-Oct-18 11:34N 27°36' W 082°54'  

Dump ship's entire track history